createdAt,value
2019-05-07T00:00:29.271Z,0.50
2019-05-07T00:02:57.411Z,0.40
2019-05-07T00:05:25.568Z,0.40
2019-05-07T00:07:53.728Z,0.47
2019-05-07T00:10:24.692Z,0.55
2019-05-07T00:12:52.070Z,0.40
2019-05-07T00:15:23.036Z,0.28
2019-05-07T00:17:52.227Z,0.30
2019-05-07T00:20:22.965Z,0.30
2019-05-07T00:22:50.537Z,0.10
2019-05-07T00:25:18.647Z,0.50
2019-05-07T00:27:47.132Z,0.40
2019-05-07T00:30:15.556Z,0.50
2019-05-07T00:32:43.682Z,0.40
2019-05-07T00:35:22.607Z,0.50
2019-05-07T00:37:52.523Z,0.20
2019-05-07T00:40:32.146Z,0.40
2019-05-07T00:43:04.782Z,0.50
2019-05-07T00:45:37.263Z,0.47
2019-05-07T00:48:05.442Z,0.33
2019-05-07T00:50:35.248Z,0.30
2019-05-07T00:53:03.436Z,0.37
2019-05-07T00:55:32.574Z,0.50
2019-05-07T00:58:02.400Z,0.23
2019-05-07T01:00:33.076Z,0.30
2019-05-07T01:03:02.901Z,0.20
2019-05-07T01:05:32.616Z,0.30
2019-05-07T01:08:02.483Z,0.37
2019-05-07T01:10:30.234Z,0.27
2019-05-07T01:12:59.346Z,0.28
2019-05-07T01:15:31.389Z,0.30
2019-05-07T01:17:57.406Z,0.30
2019-05-07T01:20:25.506Z,0.45
2019-05-07T01:22:54.709Z,0.40
2019-05-07T01:25:23.007Z,0.40
2019-05-07T01:27:53.199Z,0.40
2019-05-07T01:30:22.943Z,0.40
2019-05-07T01:33:02.768Z,0.53
2019-05-07T01:35:32.783Z,0.40
2019-05-07T01:38:03.018Z,0.47
2019-05-07T01:40:32.383Z,0.40
2019-05-07T01:43:02.534Z,0.50
2019-05-07T01:45:43.182Z,0.50
2019-05-07T01:48:04.238Z,0.80
2019-05-07T01:50:32.105Z,0.40
2019-05-07T01:52:59.759Z,0.47
2019-05-07T01:55:27.887Z,0.45
2019-05-07T01:57:55.974Z,0.40
2019-05-07T02:00:24.125Z,0.50
2019-05-07T02:02:59.632Z,0.50
2019-05-07T02:05:38.091Z,0.50
2019-05-07T02:08:07.811Z,0.65
2019-05-07T02:10:42.663Z,0.37
2019-05-07T02:13:12.470Z,0.60
2019-05-07T02:15:40.208Z,0.40
2019-05-07T02:18:08.270Z,0.40
2019-05-07T02:20:36.610Z,0.50
2019-05-07T02:23:04.663Z,0.50
2019-05-07T02:25:32.996Z,0.40
2019-05-07T02:28:02.153Z,0.40
2019-05-07T02:30:30.536Z,0.40
2019-05-07T02:32:58.761Z,0.40
2019-05-07T02:35:26.932Z,0.42
2019-05-07T02:37:58.575Z,0.50
2019-05-07T02:40:35.109Z,0.40
2019-05-07T02:43:03.291Z,0.47
2019-05-07T02:45:36.060Z,0.47
2019-05-07T02:48:04.152Z,0.30
2019-05-07T02:50:36.992Z,0.33
2019-05-07T02:53:13.318Z,0.50
2019-05-07T02:55:52.963Z,0.40
2019-05-07T02:58:23.958Z,0.40
2019-05-07T03:00:53.203Z,0.40
2019-05-07T03:03:24.299Z,0.33
2019-05-07T03:05:53.456Z,0.40
2019-05-07T03:08:24.401Z,0.30
2019-05-07T03:10:52.664Z,0.28
2019-05-07T03:13:23.224Z,0.33
2019-05-07T03:15:49.805Z,0.30
2019-05-07T03:18:19.156Z,0.40
2019-05-07T03:20:49.138Z,0.20
2019-05-07T03:23:18.885Z,0.30
2019-05-07T03:25:48.660Z,0.33
2019-05-07T03:28:17.357Z,0.35
2019-05-07T03:31:05.743Z,0.30
2019-05-07T03:33:38.346Z,0.30
2019-05-07T03:36:08.218Z,0.40
2019-05-07T03:38:36.406Z,0.30
2019-05-07T03:41:04.566Z,0.30
2019-05-07T03:43:32.754Z,0.30
2019-05-07T03:46:08.453Z,0.33
2019-05-07T03:48:38.258Z,0.40
2019-05-07T03:51:07.105Z,0.30
2019-05-07T03:53:35.189Z,0.37
2019-05-07T03:56:04.131Z,0.40
2019-05-07T03:58:33.947Z,0.42
2019-05-07T04:01:04.343Z,0.40
2019-05-07T04:03:34.042Z,0.40
2019-05-07T04:06:03.851Z,0.30
2019-05-07T04:08:33.428Z,0.40
2019-05-07T04:11:03.692Z,0.47
2019-05-07T04:13:33.533Z,0.50
2019-05-07T04:16:04.087Z,0.40
2019-05-07T04:18:32.950Z,0.20
2019-05-07T04:21:03.815Z,0.50
2019-05-07T04:23:33.773Z,0.28
2019-05-07T04:26:05.321Z,0.40
2019-05-07T04:28:35.098Z,0.30
2019-05-07T04:31:03.535Z,0.40
2019-05-07T04:33:36.531Z,0.40
2019-05-07T04:36:09.094Z,0.50
2019-05-07T04:38:38.246Z,0.33
2019-05-07T04:41:06.319Z,0.33
2019-05-07T04:43:34.493Z,0.30
2019-05-07T04:46:03.396Z,0.40
2019-05-07T04:48:34.177Z,0.33
2019-05-07T04:51:03.491Z,0.30
2019-05-07T04:53:32.859Z,0.40
2019-05-07T04:56:03.313Z,0.42
2019-05-07T04:58:33.212Z,0.50
2019-05-07T05:01:03.219Z,0.50
2019-05-07T05:03:30.702Z,0.40
2019-05-07T05:06:02.466Z,0.40
2019-05-07T05:08:32.291Z,0.40
2019-05-07T05:10:59.586Z,0.57
2019-05-07T05:13:29.377Z,0.30
2019-05-07T05:15:59.246Z,0.40
2019-05-07T05:18:28.579Z,0.60
2019-05-07T05:21:04.296Z,0.40
2019-05-07T05:23:34.091Z,0.40
2019-05-07T05:26:02.169Z,0.47
2019-05-07T05:28:32.421Z,0.45
2019-05-07T05:31:03.413Z,0.60
2019-05-07T05:33:33.255Z,0.70
2019-05-07T05:36:03.063Z,0.47
2019-05-07T05:38:32.916Z,0.50
2019-05-07T05:41:03.386Z,0.57
2019-05-07T05:43:52.738Z,0.40
2019-05-07T05:46:23.546Z,0.37
2019-05-07T05:48:52.050Z,0.50
2019-05-07T05:51:24.878Z,0.50
2019-05-07T05:53:57.497Z,0.40
2019-05-07T05:56:42.759Z,0.50
2019-05-07T05:59:12.663Z,0.50
2019-05-07T06:02:04.474Z,0.37
2019-05-07T06:04:48.520Z,0.50
2019-05-07T06:07:18.323Z,0.30
2019-05-07T06:10:04.584Z,0.33
2019-05-07T06:12:52.623Z,0.50
2019-05-07T06:15:24.937Z,0.40
2019-05-07T06:17:54.678Z,0.60
2019-05-07T06:20:42.956Z,0.40
2019-05-07T06:23:25.404Z,0.33
2019-05-07T06:25:53.535Z,0.30
2019-05-07T06:28:22.414Z,0.35
2019-05-07T06:30:52.696Z,0.47
2019-05-07T06:33:22.346Z,0.50
2019-05-07T06:35:52.081Z,0.42
2019-05-07T06:38:21.989Z,0.50
2019-05-07T06:40:52.077Z,0.40
2019-05-07T06:43:23.296Z,0.40
2019-05-07T06:45:53.107Z,0.30
2019-05-07T06:48:34.638Z,0.40
2019-05-07T06:50:56.716Z,0.40
2019-05-07T06:53:26.393Z,0.40
2019-05-07T06:55:54.470Z,0.30
2019-05-07T06:58:25.355Z,0.20
2019-05-07T07:00:58.001Z,0.40
2019-05-07T07:03:33.842Z,0.20
2019-05-07T07:06:22.986Z,0.20
2019-05-07T07:09:01.905Z,0.37
2019-05-07T07:11:33.475Z,0.37
2019-05-07T07:14:02.621Z,0.33
2019-05-07T07:16:32.554Z,0.30
2019-05-07T07:19:03.162Z,0.20
2019-05-07T07:21:32.655Z,0.20
2019-05-07T07:24:02.849Z,0.23
2019-05-07T07:26:32.660Z,0.40
2019-05-07T07:29:02.018Z,0.40
2019-05-07T07:31:32.065Z,0.30
2019-05-07T07:34:02.341Z,0.20
2019-05-07T07:36:32.418Z,0.30
2019-05-07T07:39:02.079Z,0.20
2019-05-07T07:41:42.896Z,0.20
2019-05-07T07:44:13.212Z,0.23
2019-05-07T07:46:42.409Z,0.30
2019-05-07T07:49:14.562Z,0.20
2019-05-07T07:51:44.589Z,0.10
2019-05-07T07:54:10.294Z,0.20
2019-05-07T07:56:50.108Z,0.20
2019-05-07T07:59:12.676Z,0.10
2019-05-07T08:01:52.452Z,0.20
2019-05-07T08:04:22.707Z,0.20
2019-05-07T08:06:52.652Z,0.20
2019-05-07T08:09:23.935Z,0.10
2019-05-07T08:11:52.579Z,0.17
2019-05-07T08:14:21.943Z,0.10
2019-05-07T08:16:52.862Z,0.20
2019-05-07T08:19:24.370Z,0.10
2019-05-07T08:21:52.133Z,0.20
2019-05-07T08:24:22.459Z,0.20
2019-05-07T08:26:51.902Z,0.10
2019-05-07T08:29:22.339Z,0.17
2019-05-07T08:31:54.655Z,0.10
2019-05-07T08:34:24.431Z,0.10
2019-05-07T08:36:52.790Z,0.10
2019-05-07T08:39:22.316Z,0.10
2019-05-07T08:41:52.743Z,0.10
2019-05-07T08:44:38.746Z,0.10
2019-05-07T08:47:08.561Z,0.10
2019-05-07T08:49:40.129Z,0.10
2019-05-07T08:52:07.779Z,0.20
2019-05-07T08:54:35.951Z,0.10
2019-05-07T08:57:04.271Z,0.17
2019-05-07T08:59:33.713Z,0.10
2019-05-07T09:02:03.014Z,0.10
2019-05-07T09:04:32.708Z,0.10
2019-05-07T09:07:02.737Z,0.17
2019-05-07T09:09:32.437Z,0.10
2019-05-07T09:12:03.015Z,0.10
2019-05-07T09:14:32.054Z,0.10
2019-05-07T09:17:02.562Z,0.10
2019-05-07T09:19:32.203Z,0.10
2019-05-07T09:22:02.187Z,0.10
2019-05-07T09:24:33.253Z,0.00
2019-05-07T09:27:15.558Z,0.10
2019-05-07T09:29:45.370Z,0.05
2019-05-07T09:32:18.072Z,0.10
2019-05-07T09:34:47.821Z,0.30
2019-05-07T09:37:29.412Z,0.20
2019-05-07T09:39:57.567Z,0.20
2019-05-07T09:42:26.893Z,0.10
2019-05-07T09:44:54.958Z,0.10
2019-05-07T09:47:23.133Z,0.10
2019-05-07T09:50:03.929Z,0.13
2019-05-07T09:52:22.874Z,0.08
2019-05-07T09:54:52.269Z,0.10
2019-05-07T09:57:28.312Z,0.10
2019-05-07T09:59:53.067Z,0.10
2019-05-07T10:02:22.666Z,0.10
2019-05-07T10:04:52.600Z,0.10
2019-05-07T10:07:22.300Z,0.05
2019-05-07T10:09:52.314Z,0.00
2019-05-07T10:12:25.007Z,0.10
2019-05-07T10:14:53.247Z,0.10
2019-05-07T10:17:23.061Z,0.10
2019-05-07T10:19:52.274Z,0.10
2019-05-07T10:22:22.665Z,0.10
2019-05-07T10:24:52.164Z,0.10
2019-05-07T10:27:21.822Z,0.10
2019-05-07T10:29:52.891Z,0.10
2019-05-07T10:32:20.876Z,0.10
2019-05-07T10:34:49.022Z,0.10
2019-05-07T10:37:18.416Z,0.10
2019-05-07T10:39:46.588Z,0.10
2019-05-07T10:42:15.960Z,0.10
2019-05-07T10:44:45.900Z,0.10
2019-05-07T10:47:33.774Z,0.20
2019-05-07T10:50:33.160Z,0.10
2019-05-07T10:52:49.785Z,0.10
2019-05-07T10:55:17.995Z,0.20
2019-05-07T10:57:46.096Z,0.10
2019-05-07T11:00:16.696Z,0.00
2019-05-07T11:05:13.037Z,0.25
2019-05-07T11:07:42.199Z,0.30
2019-05-07T11:10:12.533Z,0.20
2019-05-07T11:12:42.465Z,0.40
2019-05-07T11:15:12.665Z,0.30
2019-05-07T11:17:43.045Z,0.30
2019-05-07T11:20:12.498Z,0.17
2019-05-07T11:22:42.750Z,0.30
2019-05-07T11:25:12.093Z,0.20
2019-05-07T11:27:42.083Z,0.30
2019-05-07T11:30:11.908Z,0.15
2019-05-07T11:32:40.325Z,0.10
2019-05-07T11:35:08.652Z,0.20
2019-05-07T11:37:37.919Z,0.20
2019-05-07T11:40:06.914Z,0.20
2019-05-07T11:42:39.456Z,0.17
2019-05-07T11:45:09.651Z,0.20
2019-05-07T11:47:37.733Z,0.20
2019-05-07T11:50:24.251Z,0.20
2019-05-07T11:52:54.000Z,0.20
2019-05-07T11:55:22.518Z,0.20
2019-05-07T11:57:51.842Z,0.20
2019-05-07T12:00:21.958Z,0.30
2019-05-07T12:02:51.912Z,0.20
2019-05-07T12:05:19.894Z,0.20
2019-05-07T12:07:48.443Z,0.30
2019-05-07T12:10:16.511Z,0.20
2019-05-07T12:12:49.029Z,0.30
2019-05-07T12:15:17.356Z,0.23
2019-05-07T12:17:45.515Z,0.20
2019-05-07T12:20:15.420Z,0.30
2019-05-07T12:22:48.231Z,0.25
2019-05-07T12:25:19.365Z,0.30
2019-05-07T12:27:48.289Z,0.40
2019-05-07T12:30:27.548Z,0.40
2019-05-07T12:32:57.342Z,0.40
2019-05-07T12:35:25.505Z,0.30
2019-05-07T12:37:53.663Z,0.40
2019-05-07T12:40:22.419Z,0.30
2019-05-07T12:42:52.414Z,0.30
2019-05-07T12:45:22.834Z,0.40
2019-05-07T12:47:52.808Z,0.40
2019-05-07T12:50:21.951Z,0.40
2019-05-07T12:52:55.766Z,0.30
2019-05-07T12:55:37.817Z,0.25
2019-05-07T12:58:05.984Z,0.30
2019-05-07T13:00:52.126Z,0.30
2019-05-07T13:03:25.001Z,0.30
2019-05-07T13:05:53.184Z,0.30
2019-05-07T13:08:23.004Z,0.40
2019-05-07T13:10:51.950Z,0.40
2019-05-07T13:13:20.232Z,0.30
2019-05-07T13:15:48.339Z,0.25
2019-05-07T13:18:16.429Z,0.30
2019-05-07T13:20:44.613Z,0.30
2019-05-07T13:23:12.762Z,0.40
2019-05-07T13:25:42.759Z,0.30
2019-05-07T13:28:11.831Z,0.23
2019-05-07T13:30:43.625Z,0.25
2019-05-07T13:33:12.187Z,0.35
2019-05-07T13:35:42.012Z,0.20
2019-05-07T13:38:14.661Z,0.40
2019-05-07T13:40:43.487Z,0.25
2019-05-07T13:43:16.171Z,0.30
2019-05-07T13:45:49.165Z,0.35
2019-05-07T13:48:19.892Z,0.30
2019-05-07T13:50:48.243Z,0.23
2019-05-07T13:53:16.496Z,0.40
2019-05-07T13:55:44.633Z,0.30
2019-05-07T13:58:14.347Z,0.37
2019-05-07T14:01:04.804Z,0.10
2019-05-07T14:03:33.050Z,0.30
2019-05-07T14:06:04.408Z,0.20
2019-05-07T14:08:33.229Z,0.33
2019-05-07T14:11:02.883Z,0.30
2019-05-07T14:13:31.030Z,0.40
2019-05-07T14:16:06.233Z,0.60
2019-05-07T14:18:35.845Z,0.40
2019-05-07T14:21:04.464Z,0.33
2019-05-07T14:23:32.803Z,0.30
2019-05-07T14:26:01.967Z,0.30
2019-05-07T14:28:32.500Z,0.30
2019-05-07T14:31:01.896Z,0.35
2019-05-07T14:33:49.605Z,0.30
2019-05-07T14:36:22.462Z,0.23
2019-05-07T14:38:52.297Z,0.37
2019-05-07T14:41:25.321Z,0.10
2019-05-07T14:44:00.781Z,0.40
2019-05-07T14:46:43.622Z,0.40
2019-05-07T14:48:58.859Z,0.43
2019-05-07T14:51:27.149Z,0.40
2019-05-07T14:53:55.315Z,0.40
2019-05-07T14:56:23.440Z,0.40
2019-05-07T14:58:51.724Z,0.25
2019-05-07T15:01:22.277Z,0.30
2019-05-07T15:03:51.644Z,0.40
2019-05-07T15:06:21.889Z,0.40
2019-05-07T15:08:52.222Z,0.50
2019-05-07T15:11:20.697Z,0.37
2019-05-07T15:13:52.167Z,0.50
2019-05-07T15:16:22.468Z,0.40
2019-05-07T15:18:52.941Z,0.37
2019-05-07T15:21:21.694Z,0.30
2019-05-07T15:23:53.009Z,0.30
2019-05-07T15:26:22.589Z,0.30
2019-05-07T15:28:55.692Z,0.55
2019-05-07T15:31:25.684Z,0.40
2019-05-07T15:33:53.824Z,0.35
2019-05-07T15:36:27.896Z,0.53
2019-05-07T15:38:57.356Z,0.40
2019-05-07T15:41:25.515Z,0.40
2019-05-07T15:43:53.670Z,0.50
2019-05-07T15:46:23.805Z,0.37
2019-05-07T15:48:52.612Z,0.40
2019-05-07T15:51:22.533Z,0.40
2019-05-07T15:53:52.459Z,0.40
2019-05-07T15:56:21.892Z,0.23
2019-05-07T15:58:51.774Z,0.30
2019-05-07T16:01:22.020Z,0.30
2019-05-07T16:03:54.406Z,0.20
2019-05-07T16:06:21.895Z,0.30
2019-05-07T16:08:51.131Z,0.40
2019-05-07T16:11:19.532Z,0.30
2019-05-07T16:14:04.405Z,0.40
2019-05-07T16:16:33.322Z,0.30
2019-05-07T16:19:12.470Z,0.30
2019-05-07T16:21:42.572Z,0.20
2019-05-07T16:24:12.123Z,0.47
2019-05-07T16:26:41.854Z,0.50
2019-05-07T16:29:10.222Z,0.70
2019-05-07T16:31:38.498Z,0.55
2019-05-07T16:34:06.618Z,0.50
2019-05-07T16:36:35.143Z,0.60
2019-05-07T16:39:04.140Z,0.50
2019-05-07T16:41:33.791Z,0.60
2019-05-07T16:44:02.902Z,0.70
2019-05-07T16:46:32.262Z,0.50
2019-05-07T16:49:02.319Z,0.53
2019-05-07T16:51:32.834Z,0.65
2019-05-07T16:54:01.400Z,0.50
2019-05-07T16:56:30.375Z,0.47
2019-05-07T16:59:07.580Z,0.60
2019-05-07T17:01:35.531Z,0.40
2019-05-07T17:04:04.040Z,0.40
2019-05-07T17:06:32.344Z,0.40
2019-05-07T17:09:02.679Z,0.60
2019-05-07T17:11:32.589Z,0.70
2019-05-07T17:14:02.293Z,0.53
2019-05-07T17:16:31.764Z,0.70
2019-05-07T17:19:02.350Z,0.70
2019-05-07T17:21:32.241Z,0.80
2019-05-07T17:24:02.333Z,0.70
2019-05-07T17:26:30.972Z,0.60
2019-05-07T17:28:59.186Z,0.65
2019-05-07T17:31:27.343Z,0.60
2019-05-07T17:33:55.711Z,0.47
2019-05-07T17:36:23.899Z,0.75
2019-05-07T17:38:52.125Z,0.30
2019-05-07T17:41:24.764Z,0.40
2019-05-07T17:43:52.102Z,0.30
2019-05-07T17:46:21.744Z,0.30
2019-05-07T17:48:52.178Z,0.30
2019-05-07T17:51:38.169Z,0.25
2019-05-07T17:54:06.255Z,0.30
2019-05-07T17:56:34.456Z,0.37
2019-05-07T17:59:02.979Z,0.35
2019-05-07T18:01:33.095Z,0.42
2019-05-07T18:04:02.949Z,0.30
2019-05-07T18:06:32.130Z,0.30
2019-05-07T18:09:02.710Z,0.28
2019-05-07T18:11:32.529Z,0.37
2019-05-07T18:14:02.611Z,0.17
2019-05-07T18:16:47.246Z,0.30
2019-05-07T18:19:15.455Z,0.30
2019-05-07T18:21:43.628Z,0.35
2019-05-07T18:24:16.026Z,0.30
2019-05-07T18:26:42.320Z,0.13
2019-05-07T18:29:11.951Z,0.30
2019-05-07T18:31:44.803Z,0.40
2019-05-07T18:34:14.027Z,0.30
2019-05-07T18:36:42.355Z,0.30
2019-05-07T18:39:10.545Z,0.40
2019-05-07T18:41:38.641Z,0.40
2019-05-07T18:44:12.507Z,0.30
2019-05-07T18:46:37.659Z,0.30
2019-05-07T18:49:05.963Z,0.40
2019-05-07T18:51:34.505Z,0.50
2019-05-07T18:54:02.765Z,0.60
2019-05-07T18:56:30.840Z,0.37
2019-05-07T18:58:59.008Z,0.40
2019-05-07T19:01:28.812Z,0.50
2019-05-07T19:03:57.601Z,0.53
2019-05-07T19:06:25.673Z,0.62
2019-05-07T19:08:53.770Z,0.40
2019-05-07T19:11:22.870Z,0.50
2019-05-07T19:13:52.481Z,0.40
2019-05-07T19:16:23.015Z,0.42
2019-05-07T19:18:50.987Z,0.60
2019-05-07T19:21:19.219Z,0.40
2019-05-07T19:23:47.321Z,0.40
2019-05-07T19:26:15.778Z,0.40
2019-05-07T19:28:44.075Z,0.47
2019-05-07T19:31:12.619Z,0.50
2019-05-07T19:33:41.935Z,0.50
2019-05-07T19:36:10.445Z,0.50
2019-05-07T19:38:38.622Z,0.50
2019-05-07T19:41:06.753Z,0.30
2019-05-07T19:43:36.348Z,0.30
2019-05-07T19:46:04.746Z,0.30
2019-05-07T19:48:32.853Z,0.50
2019-05-07T19:51:02.958Z,0.55
2019-05-07T19:53:32.674Z,0.50
2019-05-07T19:56:07.419Z,0.47
2019-05-07T19:58:35.521Z,0.40
2019-05-07T20:01:05.530Z,0.40
2019-05-07T20:03:33.765Z,0.47
2019-05-07T20:06:02.530Z,0.50
2019-05-07T20:08:32.279Z,0.40
2019-05-07T20:11:04.959Z,0.30
2019-05-07T20:13:33.126Z,0.30
2019-05-07T20:16:12.732Z,0.37
2019-05-07T20:18:42.708Z,0.30
2019-05-07T20:21:12.346Z,0.20
2019-05-07T20:23:42.609Z,0.50
2019-05-07T20:26:12.640Z,0.45
2019-05-07T20:28:41.753Z,0.37
2019-05-07T20:31:12.242Z,0.50
2019-05-07T20:33:42.242Z,0.47
2019-05-07T20:36:10.018Z,0.40
2019-05-07T20:38:38.199Z,0.60
2019-05-07T20:41:06.411Z,0.40
2019-05-07T20:43:34.666Z,0.50
2019-05-07T20:46:02.843Z,0.42
2019-05-07T20:48:32.419Z,0.50
2019-05-07T20:51:00.934Z,0.50
2019-05-07T20:53:48.352Z,0.40
2019-05-07T20:56:18.155Z,0.47
2019-05-07T20:58:46.301Z,0.30
2019-05-07T21:01:14.447Z,0.50
2019-05-07T21:03:42.944Z,0.35
2019-05-07T21:06:11.114Z,0.50
2019-05-07T21:08:39.231Z,0.40
2019-05-07T21:11:07.418Z,0.20
2019-05-07T21:13:35.550Z,0.40
2019-05-07T21:16:03.806Z,0.50
2019-05-07T21:18:32.710Z,0.40
2019-05-07T21:21:02.168Z,0.60
2019-05-07T21:23:32.417Z,0.40
2019-05-07T21:26:02.156Z,0.50
2019-05-07T21:28:32.326Z,0.47
2019-05-07T21:31:02.604Z,0.30
2019-05-07T21:33:32.228Z,0.40
2019-05-07T21:36:02.712Z,0.40
2019-05-07T21:38:32.756Z,0.42
2019-05-07T21:41:00.597Z,0.42
2019-05-07T21:43:29.713Z,0.37
2019-05-07T21:45:59.465Z,0.30
2019-05-07T21:48:28.683Z,0.45
2019-05-07T21:50:56.867Z,0.40
2019-05-07T21:53:29.580Z,0.40
2019-05-07T21:56:08.387Z,0.40
2019-05-07T21:58:38.527Z,0.50
2019-05-07T22:01:08.259Z,0.35
2019-05-07T22:03:38.276Z,0.68
2019-05-07T22:06:09.601Z,0.40
2019-05-07T22:08:36.537Z,0.28
2019-05-07T22:11:04.827Z,0.40
2019-05-07T22:13:33.208Z,0.28
2019-05-07T22:16:02.498Z,0.33
2019-05-07T22:18:33.542Z,0.30
2019-05-07T22:21:02.721Z,0.40
2019-05-07T22:23:32.371Z,0.40
2019-05-07T22:26:18.323Z,0.40
2019-05-07T22:28:32.160Z,0.30
2019-05-07T22:31:04.901Z,0.30
2019-05-07T22:33:44.508Z,0.40
2019-05-07T22:36:12.745Z,0.40
2019-05-07T22:38:42.583Z,0.40
2019-05-07T22:41:12.956Z,0.40
2019-05-07T22:43:42.507Z,0.30
2019-05-07T22:46:12.433Z,0.47
2019-05-07T22:48:41.872Z,0.43
2019-05-07T22:51:12.204Z,0.40
2019-05-07T22:53:40.483Z,0.30
2019-05-07T22:56:08.558Z,0.35
2019-05-07T22:58:47.281Z,0.40
2019-05-07T23:01:16.848Z,0.30
2019-05-07T23:03:44.918Z,0.37
2019-05-07T23:06:13.059Z,0.30
2019-05-07T23:08:42.468Z,0.40
2019-05-07T23:13:42.669Z,0.40
2019-05-07T23:16:12.314Z,0.33
2019-05-07T23:18:42.631Z,0.33
2019-05-07T23:21:10.001Z,0.40
2019-05-07T23:23:39.217Z,0.50
2019-05-07T23:26:07.286Z,0.40
2019-05-07T23:28:35.365Z,0.40
2019-05-07T23:31:03.519Z,0.30
2019-05-07T23:33:32.157Z,0.50
2019-05-07T23:36:02.249Z,0.45
2019-05-07T23:38:31.890Z,0.30
2019-05-07T23:41:17.017Z,0.37
2019-05-07T23:43:46.796Z,0.40
2019-05-07T23:46:14.893Z,0.33
2019-05-07T23:48:42.978Z,0.40
2019-05-07T23:51:12.619Z,0.47
2019-05-07T23:53:44.179Z,0.45
2019-05-07T23:56:10.627Z,0.40
2019-05-07T23:58:39.085Z,0.47
